createdAt,value
2022-11-10T00:00:01.132Z,0.10
2022-11-10T00:02:48.094Z,0.00
2022-11-10T00:05:34.888Z,0.00
2022-11-10T00:08:21.453Z,0.10
2022-11-10T00:11:08.730Z,0.10
2022-11-10T00:14:14.014Z,0.10
2022-11-10T00:17:04.687Z,0.10
2022-11-10T00:19:51.632Z,0.10
2022-11-10T00:22:39.427Z,0.10
2022-11-10T00:25:27.820Z,0.05
2022-11-10T00:28:14.329Z,0.00
2022-11-10T00:31:06.914Z,0.10
2022-11-10T00:33:53.187Z,0.00
2022-11-10T00:36:40.106Z,0.00
2022-11-10T00:39:27.099Z,0.00
2022-11-10T00:42:13.762Z,0.10
2022-11-10T00:45:00.131Z,0.08
2022-11-10T00:47:48.322Z,0.10
2022-11-10T00:50:34.801Z,0.10
2022-11-10T00:53:21.535Z,0.00
2022-11-10T00:56:08.150Z,0.20
2022-11-10T00:58:54.512Z,0.05
2022-11-10T01:01:41.037Z,0.08
2022-11-10T01:04:28.682Z,0.10
2022-11-10T01:07:15.028Z,0.00
2022-11-10T01:10:01.772Z,0.10
2022-11-10T01:12:48.377Z,0.10
2022-11-10T01:15:34.993Z,0.00
2022-11-10T01:18:21.220Z,0.10
2022-11-10T01:21:09.248Z,0.00
2022-11-10T01:23:56.075Z,0.10
2022-11-10T01:26:42.454Z,0.10
2022-11-10T01:29:28.766Z,0.10
2022-11-10T01:32:15.069Z,0.10
2022-11-10T01:35:01.494Z,0.05
2022-11-10T01:37:49.379Z,0.10
2022-11-10T01:40:36.075Z,0.00
2022-11-10T01:43:23.056Z,0.00
2022-11-10T01:46:11.094Z,0.00
2022-11-10T01:49:01.710Z,0.20
2022-11-10T01:51:51.933Z,0.10
2022-11-10T01:57:28.250Z,0.08
2022-11-10T02:00:15.281Z,0.10
2022-11-10T02:03:06.877Z,0.20
2022-11-10T02:05:53.169Z,0.00
2022-11-10T02:08:39.765Z,0.00
2022-11-10T02:11:28.492Z,0.17
2022-11-10T02:14:16.748Z,0.05
2022-11-10T02:17:03.072Z,0.00
2022-11-10T02:19:49.574Z,1.00
2022-11-10T02:22:38.055Z,0.00
2022-11-10T02:25:26.485Z,0.10
2022-11-10T02:28:13.096Z,0.43
2022-11-10T02:30:59.368Z,0.10
2022-11-10T02:33:46.034Z,2.90
2022-11-10T02:36:32.685Z,0.10
2022-11-10T02:39:20.605Z,0.10
2022-11-10T02:42:10.329Z,0.10
2022-11-10T02:44:57.750Z,0.10
2022-11-10T02:47:44.230Z,0.10
2022-11-10T02:50:30.571Z,0.08
2022-11-10T02:53:17.001Z,0.10
2022-11-10T02:56:04.695Z,0.00
2022-11-10T02:58:51.019Z,0.10
2022-11-10T03:01:37.651Z,0.10
2022-11-10T03:04:23.974Z,0.03
2022-11-10T03:07:10.173Z,0.00
2022-11-10T03:09:57.058Z,0.20
2022-11-10T03:12:44.961Z,0.10
2022-11-10T03:15:31.718Z,0.00
2022-11-10T03:18:18.510Z,0.10
2022-11-10T03:21:05.133Z,0.10
2022-11-10T03:23:51.407Z,0.10
2022-11-10T03:26:37.593Z,0.10
2022-11-10T03:29:25.093Z,0.10
2022-11-10T03:32:11.184Z,0.10
2022-11-10T03:34:57.451Z,0.10
2022-11-10T03:37:44.690Z,0.10
2022-11-10T03:40:31.147Z,0.10
2022-11-10T03:43:17.476Z,0.10
2022-11-10T03:46:05.211Z,0.10
2022-11-10T03:48:53.684Z,0.10
2022-11-10T03:51:40.639Z,0.10
2022-11-10T03:54:27.282Z,0.73
2022-11-10T03:57:13.543Z,0.10
2022-11-10T03:59:59.694Z,0.10
2022-11-10T04:02:47.883Z,0.08
2022-11-10T04:05:52.151Z,0.00
2022-11-10T04:08:56.135Z,0.08
2022-11-10T04:12:00.121Z,0.00
2022-11-10T04:15:08.928Z,0.10
2022-11-10T04:18:18.747Z,0.10
2022-11-10T04:21:05.508Z,0.10
2022-11-10T04:23:51.791Z,0.10
2022-11-10T04:26:38.887Z,1.08
2022-11-10T04:29:25.460Z,0.10
2022-11-10T04:32:12.381Z,0.10
2022-11-10T04:35:00.392Z,0.10
2022-11-10T04:37:47.539Z,0.10
2022-11-10T04:40:33.714Z,0.10
2022-11-10T04:43:20.446Z,0.08
2022-11-10T04:46:08.876Z,0.10
2022-11-10T04:48:56.235Z,0.05
2022-11-10T04:51:44.157Z,0.10
2022-11-10T04:54:30.908Z,0.10
2022-11-10T04:57:17.249Z,0.10
2022-11-10T05:00:04.812Z,0.85
2022-11-10T05:02:51.040Z,0.10
2022-11-10T05:05:37.320Z,0.10
2022-11-10T05:08:25.229Z,0.10
2022-11-10T05:11:13.062Z,0.10
2022-11-10T05:13:59.843Z,0.10
2022-11-10T05:16:46.750Z,0.10
2022-11-10T05:19:33.267Z,0.10
2022-11-10T05:22:19.578Z,0.10
2022-11-10T05:25:08.486Z,0.10
2022-11-10T05:27:54.637Z,0.73
2022-11-10T05:30:41.178Z,1.85
2022-11-10T05:33:27.672Z,0.10
2022-11-10T05:36:14.333Z,0.10
2022-11-10T05:39:00.732Z,0.10
2022-11-10T05:41:48.835Z,0.10
2022-11-10T05:44:35.570Z,0.10
2022-11-10T05:47:21.768Z,0.30
2022-11-10T05:50:09.786Z,0.20
2022-11-10T05:52:56.793Z,0.00
2022-11-10T05:55:43.571Z,0.10
2022-11-10T05:58:31.092Z,0.00
2022-11-10T06:01:17.369Z,0.10
2022-11-10T06:04:06.680Z,0.10
2022-11-10T06:06:52.935Z,0.10
2022-11-10T06:09:39.298Z,0.10
2022-11-10T06:12:30.127Z,0.10
2022-11-10T06:15:18.077Z,0.10
2022-11-10T06:18:04.804Z,0.10
2022-11-10T06:20:51.348Z,0.13
2022-11-10T06:23:37.953Z,0.10
2022-11-10T06:26:24.555Z,0.10
2022-11-10T06:29:10.821Z,0.10
2022-11-10T06:31:58.815Z,0.10
2022-11-10T06:34:45.093Z,0.70
2022-11-10T06:37:31.366Z,0.10
2022-11-10T06:40:17.897Z,0.10
2022-11-10T06:43:04.382Z,0.10
2022-11-10T06:45:50.711Z,0.10
2022-11-10T06:48:38.395Z,0.10
2022-11-10T06:51:24.635Z,0.10
2022-11-10T06:54:11.281Z,0.10
2022-11-10T06:56:57.624Z,0.05
2022-11-10T06:59:44.174Z,0.10
2022-11-10T07:02:30.410Z,0.10
2022-11-10T07:05:18.371Z,0.00
2022-11-10T07:08:05.484Z,0.10
2022-11-10T07:10:53.945Z,0.10
2022-11-10T07:13:40.540Z,0.05
2022-11-10T07:16:26.938Z,0.10
2022-11-10T07:19:13.659Z,0.40
2022-11-10T07:22:02.659Z,0.17
2022-11-10T07:24:51.020Z,0.10
2022-11-10T07:27:37.413Z,0.80
2022-11-10T07:30:23.955Z,0.10
2022-11-10T07:33:13.152Z,0.10
2022-11-10T07:36:03.315Z,0.10
2022-11-10T07:38:51.247Z,0.20
2022-11-10T07:41:37.440Z,0.10
2022-11-10T07:44:23.654Z,0.10
2022-11-10T07:47:09.749Z,1.27
2022-11-10T07:49:56.366Z,0.10
2022-11-10T07:52:42.900Z,0.00
2022-11-10T07:55:30.671Z,0.08
2022-11-10T07:58:20.757Z,0.05
2022-11-10T08:01:07.301Z,0.10
2022-11-10T08:03:53.812Z,0.10
2022-11-10T08:06:40.255Z,0.00
2022-11-10T08:09:26.813Z,0.00
2022-11-10T08:12:14.410Z,0.10
2022-11-10T08:15:00.760Z,0.10
2022-11-10T08:17:47.629Z,0.10
2022-11-10T08:20:34.352Z,0.00
2022-11-10T08:23:21.165Z,0.10
2022-11-10T08:26:08.055Z,1.08
2022-11-10T08:28:56.168Z,0.00
2022-11-10T08:31:42.772Z,0.10
2022-11-10T08:34:29.403Z,0.00
2022-11-10T08:37:15.736Z,0.10
2022-11-10T08:40:01.943Z,0.10
2022-11-10T08:42:48.826Z,0.00
2022-11-10T08:45:37.400Z,0.10
2022-11-10T08:48:24.138Z,0.10
2022-11-10T08:51:10.549Z,0.10
2022-11-10T08:53:56.971Z,0.10
2022-11-10T08:56:43.703Z,0.10
2022-11-10T08:59:29.905Z,0.00
2022-11-10T09:02:17.566Z,0.05
2022-11-10T09:05:04.256Z,0.10
2022-11-10T09:07:51.491Z,0.00
2022-11-10T09:10:40.571Z,0.00
2022-11-10T09:13:30.335Z,0.00
2022-11-10T09:16:17.529Z,0.20
2022-11-10T09:19:05.025Z,0.10
2022-11-10T09:21:51.613Z,0.00
2022-11-10T09:24:38.345Z,0.00
2022-11-10T09:27:24.893Z,0.00
2022-11-10T09:30:17.407Z,0.00
2022-11-10T09:33:04.383Z,0.00
2022-11-10T09:35:52.485Z,0.00
2022-11-10T09:38:39.325Z,0.10
2022-11-10T09:41:29.824Z,0.00
2022-11-10T09:44:20.412Z,0.05
2022-11-10T09:47:19.078Z,1.13
2022-11-10T09:50:22.532Z,0.10
2022-11-10T09:53:16.281Z,0.03
2022-11-10T09:56:05.097Z,0.10
2022-11-10T09:58:51.964Z,0.00
2022-11-10T10:01:46.636Z,0.00
2022-11-10T10:04:53.145Z,0.20
2022-11-10T10:07:47.883Z,3.08
2022-11-10T10:10:40.496Z,0.85
2022-11-10T10:13:48.105Z,0.10
2022-11-10T10:16:41.281Z,0.08
2022-11-10T10:19:36.506Z,0.00
2022-11-10T10:22:50.634Z,0.00
2022-11-10T10:25:40.683Z,0.03
2022-11-10T10:28:33.162Z,1.00
2022-11-10T10:31:21.822Z,0.00
2022-11-10T10:34:13.832Z,0.00
2022-11-10T10:37:00.407Z,0.05
2022-11-10T10:39:50.054Z,0.05
2022-11-10T10:42:38.957Z,0.10
2022-11-10T10:45:27.369Z,0.00
2022-11-10T10:48:27.853Z,1.05
2022-11-10T10:51:29.817Z,0.00
2022-11-10T10:54:29.234Z,6.97
2022-11-10T10:57:28.183Z,7.03
2022-11-10T11:00:22.150Z,7.43
2022-11-10T11:03:15.566Z,7.10
2022-11-10T11:06:07.524Z,7.15
2022-11-10T11:09:02.448Z,9.27
2022-11-10T11:12:01.777Z,4.10
2022-11-10T11:14:48.171Z,8.38
2022-11-10T11:17:36.528Z,8.65
2022-11-10T11:20:32.339Z,6.72
2022-11-10T11:23:36.289Z,11.85
2022-11-10T11:26:29.455Z,7.88
2022-11-10T11:29:32.555Z,7.70
2022-11-10T11:32:28.506Z,5.85
2022-11-10T11:35:25.649Z,9.30
2022-11-10T11:38:15.134Z,6.28
2022-11-10T11:41:17.757Z,7.03
2022-11-10T11:44:20.340Z,7.05
2022-11-10T11:47:21.993Z,9.07
2022-11-10T11:50:24.816Z,6.85
2022-11-10T11:53:24.384Z,5.72
2022-11-10T11:56:23.388Z,5.75
2022-11-10T11:59:23.013Z,5.20
2022-11-10T12:02:36.769Z,15.32
2022-11-10T12:05:37.177Z,5.45
2022-11-10T12:08:33.934Z,6.57
2022-11-10T12:11:29.324Z,8.65
2022-11-10T12:14:22.117Z,9.27
2022-11-10T12:17:13.745Z,6.28
2022-11-10T12:20:07.163Z,8.98
2022-11-10T12:23:03.176Z,8.93
2022-11-10T12:26:00.597Z,5.45
2022-11-10T12:28:52.629Z,8.32
2022-11-10T12:31:40.231Z,12.63
2022-11-10T12:34:33.969Z,9.95
2022-11-10T12:37:27.987Z,8.18
2022-11-10T12:40:20.426Z,8.15
2022-11-10T12:43:13.019Z,6.68
2022-11-10T12:46:04.199Z,11.15
2022-11-10T12:49:00.638Z,8.30
2022-11-10T12:51:55.603Z,10.10
2022-11-10T12:54:45.917Z,10.85
2022-11-10T12:57:34.206Z,7.03
2022-11-10T13:00:28.516Z,6.05
2022-11-10T13:03:25.646Z,6.82
2022-11-10T13:06:27.021Z,9.40
2022-11-10T13:09:24.733Z,8.07
2022-11-10T13:12:20.138Z,12.55
2022-11-10T13:15:40.144Z,8.98
2022-11-10T13:19:01.160Z,9.35
2022-11-10T13:22:07.127Z,16.30
2022-11-10T13:24:53.376Z,9.95
2022-11-10T13:27:53.216Z,6.07
2022-11-10T13:30:45.974Z,7.10
2022-11-10T13:33:36.879Z,11.82
2022-11-10T13:36:40.149Z,9.10
2022-11-10T13:39:29.110Z,5.97
2022-11-10T13:42:20.384Z,10.23
2022-11-10T13:45:29.068Z,7.15
2022-11-10T13:48:27.561Z,10.27
2022-11-10T13:51:27.114Z,8.90
2022-11-10T13:54:34.358Z,6.28
2022-11-10T13:57:30.685Z,10.77
2022-11-10T14:00:26.892Z,9.13
2022-11-10T14:04:00.377Z,6.55
2022-11-10T14:06:51.247Z,5.80
2022-11-10T14:09:41.804Z,7.53
2022-11-10T14:12:31.807Z,6.13
2022-11-10T14:15:20.201Z,7.60
2022-11-10T14:18:19.249Z,4.35
2022-11-10T14:21:06.720Z,4.72
2022-11-10T14:23:57.455Z,6.68
2022-11-10T14:26:50.625Z,7.55
2022-11-10T14:29:39.914Z,8.90
2022-11-10T14:32:27.028Z,8.30
2022-11-10T14:35:23.097Z,7.93
2022-11-10T14:38:20.894Z,6.95
2022-11-10T14:41:15.064Z,4.07
2022-11-10T14:44:04.338Z,6.22
2022-11-10T14:46:50.579Z,6.45
2022-11-10T14:49:36.857Z,9.90
2022-11-10T14:52:23.329Z,9.40
2022-11-10T14:55:14.520Z,4.45
2022-11-10T14:58:05.172Z,8.57
2022-11-10T15:00:54.241Z,4.75
2022-11-10T15:03:42.922Z,8.50
2022-11-10T15:06:46.812Z,4.90
2022-11-10T15:09:34.627Z,4.95
2022-11-10T15:12:24.646Z,7.15
2022-11-10T15:15:22.953Z,7.13
2022-11-10T15:18:29.146Z,13.40
2022-11-10T15:21:17.845Z,8.60
2022-11-10T15:24:06.916Z,4.93
2022-11-10T15:26:53.386Z,7.03
2022-11-10T15:29:39.813Z,10.27
2022-11-10T15:32:35.187Z,5.72
2022-11-10T15:35:31.865Z,5.45
2022-11-10T15:38:28.101Z,8.35
2022-11-10T15:41:26.822Z,6.25
2022-11-10T15:44:19.005Z,11.18
2022-11-10T15:47:06.832Z,4.60
2022-11-10T15:49:52.906Z,5.72
2022-11-10T15:52:40.659Z,7.03
2022-11-10T15:55:27.620Z,9.13
2022-11-10T15:58:19.404Z,5.63
2022-11-10T16:01:06.040Z,7.68
2022-11-10T16:03:52.513Z,3.63
2022-11-10T16:06:40.056Z,7.43
2022-11-10T16:09:27.600Z,10.68
2022-11-10T16:12:17.459Z,11.70
2022-11-10T16:15:04.483Z,8.73
2022-11-10T16:17:51.340Z,6.75
2022-11-10T16:20:37.915Z,7.32
2022-11-10T16:23:25.652Z,5.18
2022-11-10T16:26:16.117Z,8.32
2022-11-10T16:31:50.372Z,8.73
2022-11-10T16:34:36.662Z,8.93
2022-11-10T16:37:23.285Z,6.18
2022-11-10T16:40:15.595Z,7.88
2022-11-10T16:43:03.031Z,4.43
2022-11-10T16:45:51.072Z,8.23
2022-11-10T16:48:37.697Z,9.93
2022-11-10T16:51:30.423Z,7.32
2022-11-10T16:54:17.259Z,8.23
2022-11-10T16:57:03.312Z,6.85
2022-11-10T16:59:51.021Z,11.75
2022-11-10T17:02:39.763Z,9.75
2022-11-10T17:05:25.939Z,10.70
2022-11-10T17:08:22.130Z,6.82
2022-11-10T17:11:10.136Z,8.40
2022-11-10T17:13:56.764Z,7.53
2022-11-10T17:16:46.529Z,11.27
2022-11-10T17:19:32.997Z,9.27
2022-11-10T17:22:44.265Z,12.98
2022-11-10T17:25:33.135Z,14.20
2022-11-10T17:28:20.089Z,9.10
2022-11-10T17:31:06.793Z,12.45
2022-11-10T17:33:55.230Z,10.15
2022-11-10T17:36:41.897Z,11.70
2022-11-10T17:39:28.208Z,12.88
2022-11-10T17:42:15.182Z,9.07
2022-11-10T17:45:01.896Z,15.32
2022-11-10T17:47:49.060Z,18.13
2022-11-10T17:50:39.295Z,11.98
2022-11-10T17:53:28.157Z,10.00
2022-11-10T17:56:15.117Z,8.60
2022-11-10T17:59:01.466Z,9.13
2022-11-10T18:01:48.461Z,8.15
2022-11-10T18:04:34.620Z,7.10
2022-11-10T18:07:22.312Z,12.88
2022-11-10T18:10:12.573Z,6.38
2022-11-10T18:12:59.035Z,11.88
2022-11-10T18:15:46.858Z,9.88
2022-11-10T18:18:33.558Z,11.27
2022-11-10T18:21:19.836Z,15.77
2022-11-10T18:24:07.647Z,10.93
2022-11-10T18:26:54.248Z,7.22
2022-11-10T18:29:40.842Z,28.65
2022-11-10T18:32:27.113Z,26.40
2022-11-10T18:35:13.345Z,18.73
2022-11-10T18:37:59.708Z,10.43
2022-11-10T18:40:47.649Z,8.25
2022-11-10T18:43:33.835Z,13.52
2022-11-10T18:46:20.276Z,11.73
2022-11-10T18:49:06.641Z,15.18
2022-11-10T18:51:53.159Z,8.45
2022-11-10T18:54:39.449Z,10.82
2022-11-10T18:57:27.753Z,7.57
2022-11-10T19:00:14.941Z,15.30
2022-11-10T19:03:01.291Z,11.52
2022-11-10T19:05:55.632Z,8.93
2022-11-10T19:08:45.296Z,9.65
2022-11-10T19:11:32.662Z,10.18
2022-11-10T19:14:20.632Z,11.20
2022-11-10T19:17:06.843Z,11.48
2022-11-10T19:19:56.488Z,8.15
2022-11-10T19:22:43.392Z,12.30
2022-11-10T19:25:29.684Z,11.38
2022-11-10T19:28:15.873Z,15.82
2022-11-10T19:31:05.483Z,13.73
2022-11-10T19:33:53.686Z,11.55
2022-11-10T19:36:40.486Z,8.00
2022-11-10T19:39:26.796Z,9.48
2022-11-10T19:42:13.164Z,10.73
2022-11-10T19:45:00.489Z,9.50
2022-11-10T19:47:48.088Z,10.95
2022-11-10T19:50:34.427Z,7.88
2022-11-10T19:53:21.031Z,8.52
2022-11-10T19:56:11.578Z,10.63
2022-11-10T20:01:44.648Z,10.27
2022-11-10T20:04:32.789Z,10.50
2022-11-10T20:07:36.957Z,19.42
2022-11-10T20:10:23.788Z,12.85
2022-11-10T20:13:12.158Z,7.78
2022-11-10T20:15:58.704Z,6.35
2022-11-10T20:18:45.392Z,6.22
2022-11-10T20:21:33.563Z,6.82
2022-11-10T20:24:19.910Z,10.02
2022-11-10T20:27:06.204Z,8.70
2022-11-10T20:29:53.225Z,6.65
2022-11-10T20:32:39.496Z,6.68
2022-11-10T20:35:25.802Z,7.35
2022-11-10T20:38:13.312Z,11.18
2022-11-10T20:41:03.945Z,22.52
2022-11-10T20:43:50.846Z,14.52
2022-11-10T20:46:54.045Z,6.88
2022-11-10T20:49:41.186Z,12.43
2022-11-10T20:52:27.851Z,8.50
2022-11-10T20:55:18.464Z,8.25
2022-11-10T20:58:04.872Z,7.25
2022-11-10T21:00:51.353Z,9.32
2022-11-10T21:03:38.581Z,17.17
2022-11-10T21:06:25.223Z,15.57
2022-11-10T21:09:12.107Z,38.75
2022-11-10T21:12:17.895Z,51.88
2022-11-10T21:15:04.847Z,12.25
2022-11-10T21:17:51.155Z,12.65
2022-11-10T21:20:37.567Z,12.02
2022-11-10T21:23:24.619Z,8.60
2022-11-10T21:26:11.089Z,10.82
2022-11-10T21:28:59.625Z,7.75
2022-11-10T21:31:46.120Z,7.00
2022-11-10T21:34:32.858Z,9.85
2022-11-10T21:37:19.535Z,10.63
2022-11-10T21:40:06.911Z,7.43
2022-11-10T21:42:56.127Z,8.18
2022-11-10T21:45:43.965Z,9.13
2022-11-10T21:48:30.389Z,14.05
2022-11-10T21:51:16.613Z,6.63
2022-11-10T21:54:02.867Z,7.63
2022-11-10T21:56:49.302Z,11.23
2022-11-10T21:59:36.493Z,9.20
2022-11-10T22:02:24.211Z,8.95
2022-11-10T22:05:10.402Z,13.10
2022-11-10T22:07:56.948Z,10.70
2022-11-10T22:11:00.940Z,15.32
2022-11-10T22:14:05.659Z,14.30
2022-11-10T22:17:10.081Z,14.13
2022-11-10T22:19:58.073Z,14.65
2022-11-10T22:22:45.249Z,12.15
2022-11-10T22:25:31.740Z,10.70
2022-11-10T22:28:20.571Z,13.75
2022-11-10T22:31:08.557Z,11.85
2022-11-10T22:33:54.823Z,10.80
2022-11-10T22:36:42.717Z,8.52
2022-11-10T22:39:49.414Z,5.35
2022-11-10T22:43:06.778Z,9.27
2022-11-10T22:45:53.291Z,9.82
2022-11-10T22:48:39.832Z,8.05
2022-11-10T22:51:28.084Z,7.57
2022-11-10T22:54:17.391Z,11.73
2022-11-10T22:57:04.727Z,17.52
2022-11-10T22:59:51.064Z,12.55
2022-11-10T23:02:37.808Z,8.63
2022-11-10T23:05:24.056Z,7.88
2022-11-10T23:08:10.560Z,7.97
2022-11-10T23:11:02.859Z,11.50
2022-11-10T23:13:50.714Z,10.43
2022-11-10T23:16:37.280Z,11.20
2022-11-10T23:19:23.548Z,19.30
2022-11-10T23:22:09.950Z,14.98
2022-11-10T23:24:57.457Z,13.57
2022-11-10T23:27:45.571Z,14.65
2022-11-10T23:30:33.763Z,10.45
2022-11-10T23:33:20.364Z,10.82
2022-11-10T23:36:07.921Z,9.05
2022-11-10T23:38:55.868Z,7.13
2022-11-10T23:41:42.271Z,8.38
2022-11-10T23:44:30.126Z,11.15
2022-11-10T23:47:16.709Z,11.80
2022-11-10T23:50:03.147Z,12.60
2022-11-10T23:52:49.366Z,8.93
2022-11-10T23:55:36.143Z,11.35
2022-11-10T23:58:23.041Z,9.90
